createdAt,value
2022-12-15T00:00:08.514Z,16.20
2022-12-15T00:03:12.568Z,17.58
2022-12-15T00:06:18.882Z,16.83
2022-12-15T00:09:29.356Z,15.82
2022-12-15T00:12:35.067Z,16.10
2022-12-15T00:15:39.244Z,16.65
2022-12-15T00:18:43.498Z,14.82
2022-12-15T00:21:48.642Z,16.67
2022-12-15T00:24:52.783Z,15.85
2022-12-15T00:27:56.917Z,16.02
2022-12-15T00:31:02.683Z,17.77
2022-12-15T00:34:07.983Z,16.55
2022-12-15T00:37:12.308Z,19.60
2022-12-15T00:40:04.728Z,16.95
2022-12-15T00:42:50.298Z,17.77
2022-12-15T00:45:54.481Z,16.88
2022-12-15T00:48:40.901Z,16.85
2022-12-15T00:51:45.336Z,16.58
2022-12-15T00:54:49.304Z,16.25
2022-12-15T00:57:53.555Z,17.90
2022-12-15T01:00:57.575Z,17.70
2022-12-15T01:04:01.791Z,15.50
2022-12-15T01:07:05.883Z,15.70
2022-12-15T01:10:10.005Z,16.33
2022-12-15T01:13:14.192Z,16.95
2022-12-15T01:16:18.213Z,15.52
2022-12-15T01:19:22.437Z,15.77
2022-12-15T01:22:08.238Z,14.85
2022-12-15T01:24:53.743Z,15.88
2022-12-15T01:27:39.236Z,17.08
2022-12-15T01:30:27.034Z,15.50
2022-12-15T01:33:13.416Z,16.17
2022-12-15T01:36:00.349Z,14.93
2022-12-15T01:38:50.704Z,15.45
2022-12-15T01:41:39.486Z,15.35
2022-12-15T01:44:25.690Z,16.23
2022-12-15T01:47:14.329Z,17.25
2022-12-15T01:50:00.234Z,16.90
2022-12-15T01:52:47.346Z,18.25
2022-12-15T01:55:36.200Z,17.27
2022-12-15T01:58:22.846Z,17.33
2022-12-15T02:01:09.674Z,18.95
2022-12-15T02:03:56.485Z,19.65
2022-12-15T02:06:42.197Z,19.83
2022-12-15T02:09:28.628Z,18.48
2022-12-15T02:12:35.460Z,17.98
2022-12-15T02:15:37.487Z,18.88
2022-12-15T02:18:38.322Z,18.38
2022-12-15T02:21:35.292Z,19.50
2022-12-15T02:25:17.083Z,18.52
2022-12-15T02:28:11.952Z,18.90
2022-12-15T02:31:26.697Z,17.50
2022-12-15T02:34:23.440Z,20.02
2022-12-15T02:37:19.033Z,19.92
2022-12-15T02:40:07.584Z,18.20
2022-12-15T02:42:58.257Z,18.63
2022-12-15T02:45:56.606Z,19.52
2022-12-15T02:49:06.631Z,19.60
2022-12-15T02:51:57.933Z,18.70
2022-12-15T02:55:26.387Z,20.58
2022-12-15T02:58:21.007Z,18.92
2022-12-15T03:01:26.299Z,18.45
2022-12-15T03:04:13.001Z,18.67
2022-12-15T03:07:03.093Z,18.02
2022-12-15T03:09:48.636Z,19.63
2022-12-15T03:12:34.296Z,19.05
2022-12-15T03:15:20.382Z,19.05
2022-12-15T03:18:05.901Z,19.40
2022-12-15T03:20:51.162Z,19.13
2022-12-15T03:23:36.937Z,19.35
2022-12-15T03:26:22.579Z,18.48
2022-12-15T03:29:07.994Z,18.02
2022-12-15T03:31:53.735Z,16.95
2022-12-15T03:34:39.199Z,18.50
2022-12-15T03:37:24.759Z,19.05
2022-12-15T03:40:16.457Z,18.73
2022-12-15T03:43:01.823Z,18.95
2022-12-15T03:45:47.685Z,19.23
2022-12-15T03:48:33.573Z,19.60
2022-12-15T03:51:19.423Z,19.77
2022-12-15T03:54:04.891Z,20.05
2022-12-15T03:56:50.295Z,19.70
2022-12-15T03:59:35.817Z,19.33
2022-12-15T04:02:21.838Z,19.25
2022-12-15T04:05:08.946Z,21.52
2022-12-15T04:07:56.408Z,21.33
2022-12-15T04:10:43.595Z,21.30
2022-12-15T04:13:29.503Z,21.48
2022-12-15T04:16:19.742Z,19.15
2022-12-15T04:19:24.532Z,20.65
2022-12-15T04:22:16.375Z,20.95
2022-12-15T04:25:22.590Z,21.20
2022-12-15T04:28:28.047Z,22.60
2022-12-15T04:31:42.110Z,21.75
2022-12-15T04:34:46.398Z,21.20
2022-12-15T04:37:50.477Z,22.55
2022-12-15T04:40:54.764Z,22.33
2022-12-15T04:43:59.705Z,21.50
2022-12-15T04:47:03.960Z,20.63
2022-12-15T04:50:08.167Z,20.48
2022-12-15T04:53:12.302Z,22.58
2022-12-15T04:56:18.586Z,22.30
2022-12-15T04:59:23.386Z,22.27
2022-12-15T05:02:27.403Z,20.80
2022-12-15T05:05:31.711Z,21.52
2022-12-15T05:08:35.655Z,22.55
2022-12-15T05:11:40.511Z,21.08
2022-12-15T05:14:44.767Z,22.02
2022-12-15T05:17:53.633Z,21.65
2022-12-15T05:20:58.430Z,23.10
2022-12-15T05:24:02.445Z,22.33
2022-12-15T05:27:06.675Z,22.13
2022-12-15T05:30:10.734Z,22.60
2022-12-15T05:32:56.184Z,22.65
2022-12-15T05:35:41.763Z,22.73
2022-12-15T05:38:27.580Z,23.13
2022-12-15T05:41:13.392Z,25.13
2022-12-15T05:43:58.960Z,23.80
2022-12-15T05:46:45.636Z,23.90
2022-12-15T05:49:32.088Z,23.33
2022-12-15T05:52:18.002Z,21.40
2022-12-15T05:55:03.626Z,23.50
2022-12-15T05:57:53.710Z,22.70
2022-12-15T06:00:39.833Z,24.70
2022-12-15T06:03:25.470Z,23.60
2022-12-15T06:06:12.692Z,24.20
2022-12-15T06:08:58.387Z,24.35
2022-12-15T06:11:44.101Z,24.35
2022-12-15T06:14:31.163Z,23.83
2022-12-15T06:17:17.043Z,22.17
2022-12-15T06:20:02.860Z,21.60
2022-12-15T06:22:50.057Z,22.10
2022-12-15T06:25:35.732Z,23.75
2022-12-15T06:28:24.062Z,22.08
2022-12-15T06:31:11.860Z,27.38
2022-12-15T06:34:02.186Z,24.80
2022-12-15T06:36:48.250Z,24.50
2022-12-15T06:39:33.793Z,23.25
2022-12-15T06:42:19.521Z,24.27
2022-12-15T06:45:05.321Z,23.52
2022-12-15T06:47:50.650Z,22.67
2022-12-15T06:50:36.318Z,23.63
2022-12-15T06:53:24.310Z,23.67
2022-12-15T06:56:18.239Z,23.10
2022-12-15T06:59:06.111Z,23.98
2022-12-15T07:01:52.003Z,23.13
2022-12-15T07:04:37.595Z,24.70
2022-12-15T07:07:23.270Z,23.10
2022-12-15T07:10:10.914Z,24.23
2022-12-15T07:12:57.822Z,26.85
2022-12-15T07:15:44.486Z,24.40
2022-12-15T07:18:31.092Z,25.25
2022-12-15T07:21:17.649Z,27.20
2022-12-15T07:24:04.393Z,26.60
2022-12-15T07:26:50.254Z,26.20
2022-12-15T07:29:35.792Z,27.23
2022-12-15T07:32:21.604Z,26.40
2022-12-15T07:35:08.520Z,26.23
2022-12-15T07:37:53.955Z,26.02
2022-12-15T07:40:39.526Z,28.92
2022-12-15T07:43:25.209Z,25.48
2022-12-15T07:46:10.977Z,27.50
2022-12-15T07:48:56.553Z,27.95
2022-12-15T07:51:42.191Z,26.38
2022-12-15T07:54:29.212Z,28.42
2022-12-15T07:57:16.468Z,27.30
2022-12-15T08:00:02.135Z,27.98
2022-12-15T08:02:57.202Z,26.88
2022-12-15T08:05:42.794Z,27.05
2022-12-15T08:08:28.892Z,29.27
2022-12-15T08:11:16.207Z,27.50
2022-12-15T08:14:03.904Z,28.02
2022-12-15T08:16:50.949Z,26.10
2022-12-15T08:19:36.847Z,28.50
2022-12-15T08:22:22.151Z,28.10
2022-12-15T08:25:08.285Z,30.85
2022-12-15T08:27:53.791Z,31.73
2022-12-15T08:30:40.380Z,30.42
2022-12-15T08:33:26.070Z,29.80
2022-12-15T08:36:13.806Z,30.05
2022-12-15T08:39:01.435Z,32.83
2022-12-15T08:41:47.046Z,30.52
2022-12-15T08:44:32.794Z,30.00
2022-12-15T08:47:18.473Z,30.63
2022-12-15T08:50:06.564Z,31.52
2022-12-15T08:53:21.457Z,29.83
2022-12-15T08:56:06.232Z,32.15
2022-12-15T08:58:56.977Z,32.92
2022-12-15T09:01:43.407Z,30.40
2022-12-15T09:04:29.318Z,30.48
2022-12-15T09:07:15.095Z,33.08
2022-12-15T09:10:00.730Z,30.90
2022-12-15T09:12:46.851Z,29.48
2022-12-15T09:16:07.217Z,30.75
2022-12-15T09:18:38.677Z,30.83
2022-12-15T09:21:28.495Z,31.02
2022-12-15T09:24:20.608Z,30.98
2022-12-15T09:27:10.541Z,31.85
2022-12-15T09:29:57.399Z,31.27
2022-12-15T09:32:43.039Z,32.10
2022-12-15T09:35:28.680Z,30.55
2022-12-15T09:38:14.302Z,33.03
2022-12-15T09:41:09.168Z,29.98
2022-12-15T09:43:56.671Z,31.10
2022-12-15T09:47:01.462Z,31.65
2022-12-15T09:49:52.913Z,33.17
2022-12-15T09:52:48.356Z,32.85
2022-12-15T09:55:33.860Z,32.40
2022-12-15T09:58:40.938Z,33.33
2022-12-15T10:01:35.289Z,38.78
2022-12-15T10:04:44.653Z,34.05
2022-12-15T10:07:37.526Z,31.38
2022-12-15T10:10:32.736Z,32.65
2022-12-15T10:13:24.789Z,32.63
2022-12-15T10:16:33.778Z,33.13
2022-12-15T10:19:34.386Z,32.95
2022-12-15T10:22:25.016Z,32.55
2022-12-15T10:25:16.411Z,34.53
2022-12-15T10:28:11.563Z,34.88
2022-12-15T10:31:16.272Z,33.92
2022-12-15T10:34:10.820Z,31.65
2022-12-15T10:36:57.052Z,33.53
2022-12-15T10:39:44.601Z,32.17
2022-12-15T10:42:30.223Z,33.75
2022-12-15T10:45:50.267Z,33.75
2022-12-15T10:48:37.179Z,33.05
2022-12-15T10:51:37.129Z,34.45
2022-12-15T10:57:31.620Z,30.50
2022-12-15T11:00:19.358Z,33.00
2022-12-15T11:03:25.115Z,31.98
2022-12-15T11:06:20.397Z,31.88
2022-12-15T11:09:47.340Z,32.42
2022-12-15T11:12:51.482Z,32.33
2022-12-15T11:15:50.785Z,32.30
2022-12-15T11:21:46.458Z,31.23
2022-12-15T11:24:41.502Z,31.88
2022-12-15T11:27:36.494Z,30.70
2022-12-15T11:30:29.552Z,32.55
2022-12-15T11:33:15.396Z,33.67
2022-12-15T11:36:07.752Z,42.90
2022-12-15T11:39:04.028Z,41.60
2022-12-15T11:41:58.845Z,47.67
2022-12-15T11:44:53.843Z,33.90
2022-12-15T11:47:57.015Z,33.95
2022-12-15T11:51:06.488Z,34.30
2022-12-15T11:54:17.244Z,35.13
2022-12-15T11:57:31.077Z,34.78
2022-12-15T12:00:22.065Z,37.22
2022-12-15T12:03:32.416Z,33.70
2022-12-15T12:06:50.448Z,31.90
2022-12-15T12:09:54.823Z,35.42
2022-12-15T12:12:53.602Z,34.17
2022-12-15T12:16:09.322Z,36.35
2022-12-15T12:19:05.733Z,35.28
2022-12-15T12:21:58.932Z,33.10
2022-12-15T12:25:13.466Z,33.70
2022-12-15T12:28:15.483Z,34.42
2022-12-15T12:31:03.612Z,36.05
2022-12-15T12:33:54.444Z,35.72
2022-12-15T12:36:43.762Z,36.15
2022-12-15T12:39:32.810Z,35.22
2022-12-15T12:42:36.195Z,38.05
2022-12-15T12:45:41.732Z,36.63
2022-12-15T12:48:40.038Z,36.60
2022-12-15T12:51:55.811Z,37.27
2022-12-15T12:54:48.652Z,37.15
2022-12-15T12:57:39.936Z,36.28
2022-12-15T13:00:31.610Z,35.25
2022-12-15T13:03:21.553Z,38.05
2022-12-15T13:06:42.514Z,36.38
2022-12-15T13:09:40.372Z,38.40
2022-12-15T13:12:58.703Z,36.28
2022-12-15T13:15:51.507Z,33.30
2022-12-15T13:19:02.070Z,35.17
2022-12-15T13:21:53.035Z,37.88
2022-12-15T13:24:47.302Z,38.95
2022-12-15T13:27:38.334Z,38.70
2022-12-15T13:30:24.246Z,46.35
2022-12-15T13:33:20.021Z,36.58
2022-12-15T13:36:05.748Z,37.45
2022-12-15T13:38:56.481Z,35.28
2022-12-15T13:45:22.432Z,35.55
2022-12-15T13:48:31.583Z,36.08
2022-12-15T13:51:38.157Z,36.73
2022-12-15T13:54:26.214Z,34.33
2022-12-15T13:57:19.357Z,36.58
2022-12-15T14:00:18.394Z,34.65
2022-12-15T14:03:11.410Z,34.67
2022-12-15T14:05:59.209Z,36.38
2022-12-15T14:08:45.164Z,35.40
2022-12-15T14:11:52.905Z,35.22
2022-12-15T14:14:47.310Z,40.30
2022-12-15T14:17:36.094Z,39.33
2022-12-15T14:20:32.041Z,35.97
2022-12-15T14:23:29.218Z,37.67
2022-12-15T14:26:16.350Z,37.13
2022-12-15T14:29:04.359Z,38.17
2022-12-15T14:31:55.993Z,37.60
2022-12-15T14:34:43.970Z,38.38
2022-12-15T14:37:38.207Z,39.35
2022-12-15T14:40:28.925Z,39.30
2022-12-15T14:43:24.968Z,40.45
2022-12-15T14:46:16.165Z,39.47
2022-12-15T14:49:06.161Z,39.22
2022-12-15T14:51:56.865Z,39.63
2022-12-15T14:54:57.589Z,39.83
2022-12-15T14:57:48.097Z,39.10
2022-12-15T15:00:47.778Z,37.80
2022-12-15T15:03:11.249Z,34.55
2022-12-15T15:03:39.355Z,41.00
2022-12-15T15:06:31.567Z,38.42
2022-12-15T15:09:22.624Z,41.25
2022-12-15T15:12:14.066Z,38.55
2022-12-15T15:15:03.261Z,40.20
2022-12-15T15:17:58.353Z,38.42
2022-12-15T15:20:55.611Z,40.28
2022-12-15T15:23:41.363Z,39.20
2022-12-15T15:26:27.783Z,40.65
2022-12-15T15:29:31.913Z,39.25
2022-12-15T15:32:20.873Z,36.67
2022-12-15T15:35:07.522Z,39.58
2022-12-15T15:37:56.683Z,36.42
2022-12-15T15:40:42.364Z,39.30
2022-12-15T15:43:28.456Z,37.45
2022-12-15T15:46:25.740Z,39.15
2022-12-15T15:49:16.845Z,39.28
2022-12-15T15:52:04.998Z,41.95
2022-12-15T15:54:52.885Z,45.17
2022-12-15T15:57:38.697Z,47.13
2022-12-15T16:00:25.632Z,40.53
2022-12-15T16:03:11.689Z,41.42
2022-12-15T16:05:57.375Z,41.08
2022-12-15T16:08:44.217Z,41.95
2022-12-15T16:11:31.038Z,47.38
2022-12-15T16:14:17.890Z,48.33
2022-12-15T16:17:03.817Z,50.03
2022-12-15T16:19:49.662Z,47.00
2022-12-15T16:22:35.221Z,43.85
2022-12-15T16:25:41.249Z,41.50
2022-12-15T16:28:32.036Z,42.17
2022-12-15T16:31:29.450Z,37.55
2022-12-15T16:34:17.698Z,40.00
2022-12-15T16:37:04.602Z,41.90
2022-12-15T16:39:50.415Z,41.20
2022-12-15T16:42:36.099Z,37.15
2022-12-15T16:45:23.557Z,39.53
2022-12-15T16:48:09.241Z,38.55
2022-12-15T16:50:59.200Z,37.50
2022-12-15T16:53:45.721Z,37.50
2022-12-15T16:56:31.192Z,37.03
2022-12-15T16:59:35.673Z,36.28
2022-12-15T17:02:29.742Z,39.47
2022-12-15T17:05:18.253Z,42.38
2022-12-15T17:08:06.425Z,41.25
2022-12-15T17:10:52.818Z,40.75
2022-12-15T17:13:45.578Z,40.03
2022-12-15T17:16:31.837Z,42.05
2022-12-15T17:19:21.132Z,40.72
2022-12-15T17:22:10.231Z,39.65
2022-12-15T17:24:56.115Z,39.88
2022-12-15T17:27:42.201Z,41.67
2022-12-15T17:30:27.882Z,46.80
2022-12-15T17:33:24.066Z,47.13
2022-12-15T17:36:18.878Z,57.38
2022-12-15T17:39:04.260Z,43.78
2022-12-15T17:42:05.950Z,42.13
2022-12-15T17:44:51.872Z,44.13
2022-12-15T17:47:38.093Z,44.10
2022-12-15T17:50:25.013Z,40.63
2022-12-15T17:53:13.081Z,44.63
2022-12-15T17:55:58.365Z,41.35
2022-12-15T17:58:44.239Z,43.88
2022-12-15T18:01:29.856Z,41.88
2022-12-15T18:04:15.757Z,42.78
2022-12-15T18:07:02.706Z,41.42
2022-12-15T18:09:50.243Z,41.90
2022-12-15T18:12:36.194Z,43.83
2022-12-15T18:15:26.599Z,42.42
2022-12-15T18:18:16.795Z,45.08
2022-12-15T18:21:12.690Z,44.03
2022-12-15T18:23:58.139Z,40.97
2022-12-15T18:26:44.085Z,42.15
2022-12-15T18:29:32.902Z,42.83
2022-12-15T18:32:19.340Z,41.33
2022-12-15T18:35:20.430Z,41.70
2022-12-15T18:38:21.564Z,42.67
2022-12-15T18:41:13.367Z,42.47
2022-12-15T18:44:00.809Z,43.22
2022-12-15T18:46:48.201Z,44.47
2022-12-15T18:49:34.206Z,44.42
2022-12-15T18:52:22.256Z,44.08
2022-12-15T18:55:21.037Z,39.80
2022-12-15T18:58:14.732Z,39.03
2022-12-15T19:01:02.880Z,38.80
2022-12-15T19:03:48.399Z,36.20
2022-12-15T19:06:36.170Z,37.63
2022-12-15T19:09:23.190Z,35.70
2022-12-15T19:12:20.406Z,33.42
2022-12-15T19:15:14.702Z,37.15
2022-12-15T19:18:18.805Z,38.38
2022-12-15T19:21:43.126Z,38.88
2022-12-15T19:24:49.215Z,77.90
2022-12-15T19:27:34.834Z,39.50
2022-12-15T19:30:20.709Z,95.43
2022-12-15T19:33:07.242Z,41.15
2022-12-15T19:35:55.455Z,40.40
2022-12-15T19:38:41.035Z,39.38
2022-12-15T19:41:27.007Z,39.30
2022-12-15T19:44:16.483Z,38.65
2022-12-15T19:47:02.550Z,40.55
2022-12-15T19:49:48.417Z,37.15
2022-12-15T19:52:34.413Z,36.45
2022-12-15T19:55:26.620Z,35.50
2022-12-15T19:58:33.682Z,36.78
2022-12-15T20:01:21.167Z,35.95
2022-12-15T20:04:07.142Z,34.67
2022-12-15T20:06:52.479Z,39.75
2022-12-15T20:09:38.278Z,36.90
2022-12-15T20:12:24.279Z,37.33
2022-12-15T20:15:18.283Z,37.22
2022-12-15T20:18:04.457Z,37.95
2022-12-15T20:20:50.965Z,38.00
2022-12-15T20:23:47.688Z,39.40
2022-12-15T20:26:34.632Z,36.53
2022-12-15T20:29:29.390Z,38.58
2022-12-15T20:32:20.462Z,34.88
2022-12-15T20:35:06.236Z,37.58
2022-12-15T20:37:52.630Z,39.40
2022-12-15T20:40:38.186Z,40.63
2022-12-15T20:43:25.532Z,38.35
2022-12-15T20:46:13.471Z,38.80
2022-12-15T20:48:59.494Z,35.75
2022-12-15T20:51:47.009Z,38.05
2022-12-15T20:54:32.597Z,34.28
2022-12-15T20:57:18.162Z,36.20
2022-12-15T21:00:05.308Z,35.35
2022-12-15T21:02:52.091Z,34.75
2022-12-15T21:05:37.858Z,34.10
2022-12-15T21:08:31.779Z,35.63
2022-12-15T21:11:19.211Z,35.60
2022-12-15T21:14:10.571Z,34.35
2022-12-15T21:16:56.434Z,36.80
2022-12-15T21:19:42.001Z,34.55
2022-12-15T21:22:28.287Z,35.63
2022-12-15T21:25:25.826Z,36.13
2022-12-15T21:28:12.809Z,34.30
2022-12-15T21:30:58.582Z,33.88
2022-12-15T21:33:45.507Z,32.75
2022-12-15T21:36:30.980Z,36.60
2022-12-15T21:39:34.113Z,36.85
2022-12-15T21:42:21.036Z,36.05
2022-12-15T21:45:19.170Z,34.13
2022-12-15T21:48:23.096Z,38.42
2022-12-15T21:51:17.028Z,35.17
2022-12-15T21:54:03.700Z,34.78
2022-12-15T21:56:49.671Z,35.28
2022-12-15T21:59:36.029Z,32.42
2022-12-15T22:02:26.931Z,35.00
2022-12-15T22:05:29.328Z,35.22
2022-12-15T22:08:25.042Z,34.42
2022-12-15T22:11:24.238Z,33.35
2022-12-15T22:14:18.699Z,34.10
2022-12-15T22:17:16.783Z,34.65
2022-12-15T22:20:05.575Z,31.83
2022-12-15T22:22:51.704Z,32.80
2022-12-15T22:25:37.250Z,33.35
2022-12-15T22:28:25.523Z,30.70
2022-12-15T22:31:10.964Z,31.75
2022-12-15T22:33:56.308Z,31.33
2022-12-15T22:36:42.384Z,31.50
2022-12-15T22:39:28.791Z,33.22
2022-12-15T22:42:17.503Z,32.85
2022-12-15T22:45:04.963Z,34.38
2022-12-15T22:47:52.420Z,32.88
2022-12-15T22:50:38.152Z,33.95
2022-12-15T22:53:26.682Z,35.72
2022-12-15T22:56:28.738Z,31.77
2022-12-15T22:59:26.441Z,33.45
2022-12-15T23:02:12.697Z,32.13
2022-12-15T23:04:58.292Z,33.65
2022-12-15T23:07:44.872Z,31.38
2022-12-15T23:10:48.885Z,33.50
2022-12-15T23:13:35.031Z,36.25
2022-12-15T23:16:23.532Z,34.25
2022-12-15T23:19:23.447Z,33.38
2022-12-15T23:22:08.711Z,34.03
2022-12-15T23:24:54.191Z,32.10
2022-12-15T23:27:39.913Z,34.92
2022-12-15T23:30:25.626Z,34.22
2022-12-15T23:33:11.229Z,33.70
2022-12-15T23:35:58.897Z,32.13
2022-12-15T23:38:44.688Z,32.42
2022-12-15T23:41:29.950Z,33.45
2022-12-15T23:44:15.561Z,34.78
2022-12-15T23:47:01.016Z,33.63
2022-12-15T23:49:47.168Z,36.10
2022-12-15T23:52:33.280Z,34.78
2022-12-15T23:55:19.353Z,32.95
2022-12-15T23:58:04.762Z,31.02
